createdAt,value
2022-07-25T00:00:42.360Z,494.23
2022-07-25T00:03:12.136Z,484.03
2022-07-25T00:05:46.665Z,484.40
2022-07-25T00:08:16.339Z,496.70
2022-07-25T00:10:46.041Z,497.57
2022-07-25T00:13:15.743Z,490.70
2022-07-25T00:15:45.456Z,476.87
2022-07-25T00:18:15.147Z,487.20
2022-07-25T00:20:44.904Z,483.63
2022-07-25T00:23:14.590Z,480.37
2022-07-25T00:25:44.331Z,469.07
2022-07-25T00:28:14.023Z,466.97
2022-07-25T00:30:44.157Z,461.73
2022-07-25T00:33:13.991Z,462.07
2022-07-25T00:35:43.677Z,479.97
2022-07-25T00:38:13.378Z,467.00
2022-07-25T00:40:43.090Z,466.90
2022-07-25T00:43:12.869Z,474.17
2022-07-25T00:45:42.562Z,473.37
2022-07-25T00:48:12.218Z,475.13
2022-07-25T00:50:41.976Z,464.70
2022-07-25T00:53:11.670Z,467.67
2022-07-25T00:55:41.736Z,470.00
2022-07-25T00:58:11.381Z,470.43
2022-07-25T01:00:41.539Z,453.03
2022-07-25T01:03:11.439Z,468.77
2022-07-25T01:05:42.202Z,458.63
2022-07-25T01:08:12.779Z,463.93
2022-07-25T01:10:42.606Z,458.87
2022-07-25T01:13:12.333Z,446.00
2022-07-25T01:15:42.055Z,448.90
2022-07-25T01:18:11.964Z,448.57
2022-07-25T01:20:41.687Z,436.93
2022-07-25T01:23:11.359Z,444.63
2022-07-25T01:25:41.207Z,454.10
2022-07-25T01:28:10.903Z,454.67
2022-07-25T01:30:40.670Z,453.33
2022-07-25T01:33:10.512Z,441.90
2022-07-25T01:35:43.406Z,435.03
2022-07-25T01:38:13.695Z,448.97
2022-07-25T01:40:44.192Z,430.63
2022-07-25T01:43:14.882Z,446.73
2022-07-25T01:45:44.613Z,438.40
2022-07-25T01:48:14.365Z,435.97
2022-07-25T01:50:44.052Z,438.23
2022-07-25T01:53:14.427Z,449.33
2022-07-25T01:55:44.180Z,440.53
2022-07-25T01:58:13.932Z,443.37
2022-07-25T02:00:44.192Z,444.37
2022-07-25T02:03:26.343Z,432.70
2022-07-25T02:05:56.152Z,431.80
2022-07-25T02:08:26.102Z,440.90
2022-07-25T02:10:56.009Z,430.10
2022-07-25T02:13:26.139Z,433.20
2022-07-25T02:15:55.952Z,427.13
2022-07-25T02:18:25.658Z,442.93
2022-07-25T02:20:55.467Z,433.83
2022-07-25T02:23:25.139Z,431.67
2022-07-25T02:25:54.871Z,426.03
2022-07-25T02:28:24.548Z,428.37
2022-07-25T02:30:54.292Z,414.10
2022-07-25T02:33:24.044Z,429.43
2022-07-25T02:35:53.919Z,438.53
2022-07-25T02:38:23.607Z,426.23
2022-07-25T02:40:55.032Z,423.30
2022-07-25T02:43:25.857Z,427.33
2022-07-25T02:45:55.630Z,436.50
2022-07-25T02:48:25.471Z,437.83
2022-07-25T02:50:55.152Z,425.73
2022-07-25T02:53:54.475Z,425.67
2022-07-25T02:56:14.582Z,410.07
2022-07-25T02:58:44.634Z,419.43
2022-07-25T03:01:14.406Z,414.23
2022-07-25T03:03:44.450Z,416.57
2022-07-25T03:06:14.204Z,409.80
2022-07-25T03:08:44.010Z,405.00
2022-07-25T03:11:14.820Z,406.47
2022-07-25T03:13:44.518Z,416.83
2022-07-25T03:16:14.286Z,414.83
2022-07-25T03:18:44.153Z,413.20
2022-07-25T03:21:14.062Z,414.13
2022-07-25T03:23:43.695Z,399.60
2022-07-25T03:26:13.396Z,407.03
2022-07-25T03:28:43.109Z,417.27
2022-07-25T03:31:12.711Z,407.83
2022-07-25T03:33:42.453Z,422.67
2022-07-25T03:36:12.404Z,418.47
2022-07-25T03:38:42.191Z,426.67
2022-07-25T03:41:11.830Z,435.57
2022-07-25T03:43:41.627Z,435.60
2022-07-25T03:46:11.418Z,431.27
2022-07-25T03:48:41.369Z,426.17
2022-07-25T03:51:11.382Z,405.00
2022-07-25T03:53:53.247Z,413.60
2022-07-25T03:56:23.227Z,398.97
2022-07-25T03:58:52.902Z,400.73
2022-07-25T04:01:22.942Z,409.90
2022-07-25T04:03:54.688Z,404.07
2022-07-25T04:06:24.348Z,411.87
2022-07-25T04:08:55.044Z,417.27
2022-07-25T04:11:25.273Z,410.23
2022-07-25T04:13:55.077Z,412.07
2022-07-25T04:16:25.137Z,416.50
2022-07-25T04:18:58.518Z,405.57
2022-07-25T04:21:31.078Z,410.50
2022-07-25T04:24:00.846Z,419.80
2022-07-25T04:26:30.691Z,411.90
2022-07-25T04:29:03.559Z,398.77
2022-07-25T04:31:33.736Z,396.40
2022-07-25T04:34:03.696Z,390.80
2022-07-25T04:36:33.697Z,394.27
2022-07-25T04:39:03.436Z,413.40
2022-07-25T04:41:33.697Z,405.77
2022-07-25T04:44:03.995Z,404.73
2022-07-25T04:46:36.613Z,397.67
2022-07-25T04:49:06.559Z,418.17
2022-07-25T04:51:36.266Z,407.20
2022-07-25T04:54:06.508Z,419.03
2022-07-25T04:56:36.591Z,422.40
2022-07-25T04:59:07.178Z,410.23
2022-07-25T05:01:38.616Z,416.73
2022-07-25T05:04:08.797Z,408.73
2022-07-25T05:06:38.683Z,426.33
2022-07-25T05:09:08.299Z,397.23
2022-07-25T05:11:38.087Z,405.43
2022-07-25T05:14:08.617Z,416.57
2022-07-25T05:16:38.493Z,417.30
2022-07-25T05:19:09.810Z,411.17
2022-07-25T05:21:39.588Z,416.80
2022-07-25T05:24:10.090Z,424.47
2022-07-25T05:26:39.930Z,430.20
2022-07-25T05:29:10.415Z,439.23
2022-07-25T05:31:40.276Z,423.63
2022-07-25T05:34:10.312Z,426.47
2022-07-25T05:36:44.189Z,420.50
2022-07-25T05:39:16.918Z,417.70
2022-07-25T05:41:46.948Z,433.93
2022-07-25T05:44:16.757Z,424.37
2022-07-25T05:46:46.588Z,435.77
2022-07-25T05:49:16.429Z,447.50
2022-07-25T05:51:46.208Z,418.90
2022-07-25T05:54:15.927Z,437.23
2022-07-25T05:56:45.796Z,449.33
2022-07-25T05:59:15.643Z,441.47
2022-07-25T06:01:45.476Z,437.73
2022-07-25T06:04:15.516Z,438.73
2022-07-25T06:06:51.156Z,434.67
2022-07-25T06:09:22.660Z,439.17
2022-07-25T06:12:00.116Z,451.17
2022-07-25T06:14:31.514Z,449.53
2022-07-25T06:17:01.299Z,448.60
2022-07-25T06:19:31.271Z,446.97
2022-07-25T06:22:01.150Z,447.23
2022-07-25T06:24:31.231Z,451.53
2022-07-25T06:27:01.106Z,451.23
2022-07-25T06:29:30.849Z,459.90
2022-07-25T06:32:00.622Z,461.00
2022-07-25T06:34:30.323Z,475.60
2022-07-25T06:37:00.991Z,483.33
2022-07-25T06:39:30.768Z,499.43
2022-07-25T06:42:00.615Z,487.57
2022-07-25T06:44:38.208Z,482.83
2022-07-25T06:47:12.798Z,487.50
2022-07-25T06:49:43.975Z,503.00
2022-07-25T06:52:13.640Z,504.27
2022-07-25T06:54:43.455Z,510.67
2022-07-25T06:57:13.143Z,516.17
2022-07-25T06:59:42.907Z,517.60
2022-07-25T07:02:12.815Z,733.97
2022-07-25T07:04:42.670Z,584.00
2022-07-25T07:07:12.533Z,561.87
2022-07-25T07:09:43.009Z,577.73
2022-07-25T07:12:13.422Z,561.47
2022-07-25T07:14:44.514Z,559.83
2022-07-25T07:17:14.354Z,571.17
2022-07-25T07:19:45.886Z,568.40
2022-07-25T07:22:15.567Z,563.50
2022-07-25T07:24:48.119Z,565.87
2022-07-25T07:27:19.058Z,587.63
2022-07-25T07:29:49.316Z,587.80
2022-07-25T07:32:19.793Z,591.97
2022-07-25T07:34:49.598Z,788.38
2022-07-25T07:37:19.283Z,637.33
2022-07-25T07:39:49.271Z,636.47
2022-07-25T07:42:18.923Z,614.93
2022-07-25T07:44:49.305Z,625.87
2022-07-25T07:47:21.777Z,621.17
2022-07-25T07:49:51.499Z,634.13
2022-07-25T07:52:21.118Z,639.73
2022-07-25T07:55:03.173Z,638.50
2022-07-25T07:57:34.501Z,631.17
2022-07-25T08:00:04.272Z,628.17
2022-07-25T08:02:54.186Z,656.33
2022-07-25T08:05:26.594Z,656.77
2022-07-25T08:07:57.435Z,656.13
2022-07-25T08:10:29.763Z,662.03
2022-07-25T08:13:00.175Z,659.03
2022-07-25T08:15:30.247Z,681.50
2022-07-25T08:18:00.544Z,687.07
2022-07-25T08:20:38.706Z,685.47
2022-07-25T08:23:11.133Z,692.07
2022-07-25T08:25:42.013Z,693.23
2022-07-25T08:28:12.337Z,712.70
2022-07-25T08:30:42.979Z,705.30
2022-07-25T08:33:16.389Z,705.90
2022-07-25T08:35:54.896Z,700.30
2022-07-25T08:38:26.125Z,729.30
2022-07-25T08:40:58.290Z,716.10
2022-07-25T08:43:29.424Z,736.60
2022-07-25T08:45:59.786Z,739.67
2022-07-25T08:48:30.415Z,731.20
2022-07-25T08:51:01.009Z,749.03
2022-07-25T08:53:33.705Z,749.90
2022-07-25T08:56:10.728Z,735.60
2022-07-25T08:58:43.953Z,757.03
2022-07-25T09:01:15.515Z,750.30
2022-07-25T09:03:46.514Z,757.77
2022-07-25T09:06:24.503Z,763.03
2022-07-25T09:08:56.461Z,759.77
2022-07-25T09:11:44.350Z,767.30
2022-07-25T09:14:15.705Z,780.37
2022-07-25T09:16:48.159Z,760.90
2022-07-25T09:19:28.595Z,776.90
2022-07-25T09:22:10.060Z,778.33
2022-07-25T09:24:48.099Z,795.10
2022-07-25T09:27:18.330Z,791.87
2022-07-25T09:29:48.253Z,794.43
2022-07-25T09:32:23.422Z,791.03
2022-07-25T09:34:53.774Z,798.40
2022-07-25T09:37:29.915Z,799.33
2022-07-25T09:39:59.612Z,802.97
2022-07-25T09:42:32.276Z,802.97
2022-07-25T09:45:11.530Z,821.63
2022-07-25T09:47:53.410Z,807.83
2022-07-25T09:50:25.242Z,821.33
2022-07-25T09:52:57.070Z,816.53
2022-07-25T09:55:27.619Z,823.97
2022-07-25T09:57:57.572Z,828.27
2022-07-25T10:00:29.718Z,845.13
2022-07-25T10:03:45.719Z,833.83
2022-07-25T10:06:23.663Z,824.53
2022-07-25T10:08:54.354Z,844.07
2022-07-25T10:11:30.060Z,844.93
2022-07-25T10:14:00.034Z,846.17
2022-07-25T10:16:30.670Z,859.27
2022-07-25T10:19:01.771Z,857.03
2022-07-25T10:21:31.781Z,851.43
2022-07-25T10:24:12.954Z,855.57
2022-07-25T10:26:55.049Z,844.67
2022-07-25T10:29:24.808Z,858.87
2022-07-25T10:31:54.782Z,862.13
2022-07-25T10:34:33.567Z,863.93
2022-07-25T10:37:18.481Z,860.93
2022-07-25T10:39:48.885Z,880.10
2022-07-25T10:42:20.959Z,875.73
2022-07-25T10:44:52.642Z,868.60
2022-07-25T10:47:26.593Z,862.37
2022-07-25T10:50:34.769Z,861.50
2022-07-25T10:53:07.877Z,871.93
2022-07-25T10:55:39.522Z,883.93
2022-07-25T10:58:18.173Z,871.17
2022-07-25T11:00:48.229Z,885.03
2022-07-25T11:03:18.675Z,885.23
2022-07-25T11:05:51.803Z,883.10
2022-07-25T11:08:22.631Z,889.60
2022-07-25T11:10:55.188Z,892.93
2022-07-25T11:13:24.904Z,883.53
2022-07-25T11:15:54.684Z,885.30
2022-07-25T11:18:35.020Z,897.10
2022-07-25T11:21:06.834Z,903.67
2022-07-25T11:23:38.852Z,900.67
2022-07-25T11:26:13.876Z,887.83
2022-07-25T11:28:53.626Z,898.83
2022-07-25T11:31:26.262Z,903.80
2022-07-25T11:33:56.124Z,909.10
2022-07-25T11:36:25.902Z,903.80
2022-07-25T11:38:55.654Z,914.13
2022-07-25T11:41:33.068Z,913.70
2022-07-25T11:44:02.837Z,918.60
2022-07-25T11:46:32.602Z,917.03
2022-07-25T11:49:09.157Z,926.03
2022-07-25T11:51:41.994Z,928.03
2022-07-25T11:54:13.779Z,928.50
2022-07-25T11:56:45.762Z,928.30
2022-07-25T11:59:16.938Z,923.80
2022-07-25T12:01:47.694Z,930.03
2022-07-25T12:04:20.607Z,940.43
2022-07-25T12:06:52.007Z,939.60
2022-07-25T12:09:24.803Z,941.60
2022-07-25T12:12:06.214Z,942.67
2022-07-25T12:14:45.622Z,953.33
2022-07-25T12:17:15.445Z,954.23
2022-07-25T12:19:48.812Z,950.10
2022-07-25T12:22:18.545Z,951.90
2022-07-25T12:24:48.398Z,953.80
2022-07-25T12:27:18.027Z,957.55
2022-07-25T12:29:47.731Z,960.38
2022-07-25T12:32:17.616Z,959.90
2022-07-25T12:34:47.285Z,956.25
2022-07-25T12:37:17.012Z,965.40
2022-07-25T12:39:46.709Z,971.50
2022-07-25T12:42:16.476Z,970.77
2022-07-25T12:44:46.732Z,981.63
2022-07-25T12:47:16.412Z,968.72
2022-07-25T12:49:46.279Z,981.53
2022-07-25T12:52:15.973Z,979.35
2022-07-25T12:54:46.371Z,976.25
2022-07-25T12:57:20.921Z,970.35
2022-07-25T12:59:50.623Z,979.28
2022-07-25T13:02:20.386Z,975.53
2022-07-25T13:04:50.177Z,980.00
2022-07-25T13:07:19.937Z,975.90
2022-07-25T13:09:49.895Z,992.47
2022-07-25T13:12:19.743Z,988.17
2022-07-25T13:14:49.764Z,991.38
2022-07-25T13:17:26.501Z,992.97
2022-07-25T13:19:57.786Z,994.15
2022-07-25T13:22:28.478Z,999.40
2022-07-25T13:24:58.387Z,999.78
2022-07-25T13:27:28.123Z,995.42
2022-07-25T13:29:58.161Z,999.72
2022-07-25T13:32:29.611Z,999.90
2022-07-25T13:34:59.984Z,999.90
2022-07-25T13:37:30.135Z,999.90
2022-07-25T13:39:59.813Z,999.90
2022-07-25T13:42:29.800Z,999.90
2022-07-25T13:44:59.742Z,999.90
2022-07-25T13:47:30.658Z,999.90
2022-07-25T13:50:00.714Z,999.90
2022-07-25T13:52:30.427Z,999.90
2022-07-25T13:55:00.253Z,999.90
2022-07-25T13:57:30.049Z,999.90
2022-07-25T13:59:59.736Z,999.90
2022-07-25T14:02:29.703Z,999.90
2022-07-25T14:05:03.753Z,999.90
2022-07-25T14:07:34.060Z,999.90
2022-07-25T14:10:04.185Z,999.90
2022-07-25T14:12:34.326Z,999.90
2022-07-25T14:15:04.410Z,999.90
2022-07-25T14:17:34.142Z,999.90
2022-07-25T14:20:03.850Z,999.90
2022-07-25T14:22:33.564Z,999.90
2022-07-25T14:25:03.234Z,999.90
2022-07-25T14:27:32.912Z,999.90
2022-07-25T14:30:02.651Z,999.90
2022-07-25T14:32:32.352Z,999.90
2022-07-25T14:35:02.558Z,999.90
2022-07-25T14:37:32.518Z,999.90
2022-07-25T14:40:03.275Z,999.90
2022-07-25T14:42:33.140Z,999.90
2022-07-25T14:45:02.936Z,999.90
2022-07-25T14:47:34.115Z,999.90
2022-07-25T14:50:04.072Z,999.90
2022-07-25T14:52:34.298Z,999.90
2022-07-25T14:55:05.125Z,999.90
2022-07-25T14:57:35.129Z,999.90
2022-07-25T15:00:08.156Z,999.90
2022-07-25T15:02:40.694Z,999.90
2022-07-25T15:05:10.922Z,999.90
2022-07-25T15:07:40.995Z,999.90
2022-07-25T15:10:11.203Z,999.90
2022-07-25T15:12:41.212Z,999.90
2022-07-25T15:15:11.542Z,999.90
2022-07-25T15:17:41.823Z,999.90
2022-07-25T15:20:12.050Z,999.90
2022-07-25T15:22:41.726Z,999.90
2022-07-25T15:28:02.140Z,999.90
2022-07-25T15:30:31.926Z,999.90
2022-07-25T15:33:02.199Z,999.90
2022-07-25T15:35:31.925Z,999.90
2022-07-25T15:38:01.674Z,999.90
2022-07-25T15:40:31.465Z,999.90
2022-07-25T15:43:01.492Z,999.90
2022-07-25T15:45:33.152Z,999.90
2022-07-25T15:48:03.830Z,999.90
2022-07-25T15:50:33.601Z,999.90
2022-07-25T15:53:03.380Z,999.90
2022-07-25T15:55:33.963Z,999.90
2022-07-25T15:58:04.204Z,999.90
2022-07-25T16:00:34.027Z,999.90
2022-07-25T16:03:04.362Z,999.90
2022-07-25T16:05:34.146Z,999.90
2022-07-25T16:08:04.714Z,999.90
2022-07-25T16:10:36.413Z,999.90
2022-07-25T16:13:06.387Z,999.90
2022-07-25T16:15:36.197Z,999.90
2022-07-25T16:18:06.223Z,999.90
2022-07-25T16:20:36.396Z,999.90
2022-07-25T16:23:06.539Z,999.90
2022-07-25T16:25:36.387Z,999.90
2022-07-25T16:28:06.416Z,999.90
2022-07-25T16:30:36.550Z,999.90
2022-07-25T16:33:06.304Z,999.90
2022-07-25T16:35:36.006Z,999.90
2022-07-25T16:38:05.716Z,999.90
2022-07-25T16:40:35.802Z,999.90
2022-07-25T16:43:05.558Z,999.90
2022-07-25T16:45:35.279Z,999.90
2022-07-25T16:48:05.130Z,999.90
2022-07-25T16:50:34.723Z,999.90
2022-07-25T16:53:04.358Z,999.90
2022-07-25T16:55:34.345Z,999.90
2022-07-25T16:58:04.047Z,999.90
2022-07-25T17:00:34.254Z,999.90
2022-07-25T17:03:04.148Z,999.90
2022-07-25T17:05:33.827Z,999.90
2022-07-25T17:08:03.563Z,999.90
2022-07-25T17:10:33.223Z,999.90
2022-07-25T17:13:03.189Z,999.90
2022-07-25T17:15:32.925Z,999.90
2022-07-25T17:18:02.726Z,999.90
2022-07-25T17:20:32.409Z,999.90
2022-07-25T17:23:02.096Z,999.90
2022-07-25T17:25:31.831Z,999.90
2022-07-25T17:28:01.575Z,999.60
2022-07-25T17:30:31.673Z,999.90
2022-07-25T17:33:01.993Z,999.90
2022-07-25T17:35:31.682Z,996.20
2022-07-25T17:38:01.940Z,997.50
2022-07-25T17:40:31.843Z,990.73
2022-07-25T17:43:01.575Z,999.90
2022-07-25T17:45:31.318Z,986.57
2022-07-25T17:48:01.294Z,999.90
2022-07-25T17:50:31.021Z,977.93
2022-07-25T17:53:01.021Z,968.93
2022-07-25T17:55:35.423Z,956.90
2022-07-25T17:58:08.413Z,946.20
2022-07-25T18:00:38.544Z,933.83
2022-07-25T18:03:09.352Z,938.03
2022-07-25T18:05:39.918Z,934.60
2022-07-25T18:08:09.783Z,932.30
2022-07-25T18:10:39.510Z,928.73
2022-07-25T18:13:09.275Z,922.30
2022-07-25T18:15:39.423Z,911.80
2022-07-25T18:18:10.559Z,906.63
2022-07-25T18:20:43.999Z,903.53
2022-07-25T18:23:13.905Z,894.03
2022-07-25T18:25:43.958Z,884.93
2022-07-25T18:28:13.842Z,893.47
2022-07-25T18:30:43.528Z,883.03
2022-07-25T18:33:13.848Z,891.87
2022-07-25T18:35:43.539Z,999.90
2022-07-25T18:38:13.286Z,897.50
2022-07-25T18:40:43.099Z,883.10
2022-07-25T18:43:12.746Z,873.47
2022-07-25T18:45:42.804Z,872.43
2022-07-25T18:48:12.441Z,860.67
2022-07-25T18:50:42.214Z,863.97
2022-07-25T18:53:12.417Z,851.80
2022-07-25T18:55:42.203Z,866.37
2022-07-25T18:58:15.946Z,845.77
